sensor_id;sensor_type;location;lat;lon;timestamp;pressure;altitude;pressure_sealevel;temperature;humidity
70684;BME280;58263;48.146;11.440;2022-12-07T00:01:11;95612.28;;;3.15;77.58
70684;BME280;58263;48.146;11.440;2022-12-07T00:03:38;95614.31;;;3.13;77.82
70684;BME280;58263;48.146;11.440;2022-12-07T00:06:05;95613.50;;;3.12;77.82
70684;BME280;58263;48.146;11.440;2022-12-07T00:08:31;95604.97;;;3.17;78.01
70684;BME280;58263;48.146;11.440;2022-12-07T00:11:05;95613.31;;;3.14;77.85
70684;BME280;58263;48.146;11.440;2022-12-07T00:13:31;95608.81;;;3.14;77.84
70684;BME280;58263;48.146;11.440;2022-12-07T00:18:33;95603.44;;;3.08;78.05
70684;BME280;58263;48.146;11.440;2022-12-07T00:21:21;95596.59;;;2.98;78.04
70684;BME280;58263;48.146;11.440;2022-12-07T00:23:46;95601.78;;;3.07;77.72
70684;BME280;58263;48.146;11.440;2022-12-07T00:26:21;95593.50;;;3.10;78.03
70684;BME280;58263;48.146;11.440;2022-12-07T00:28:48;95595.81;;;2.98;78.27
70684;BME280;58263;48.146;11.440;2022-12-07T00:31:15;95595.13;;;3.11;77.84
70684;BME280;58263;48.146;11.440;2022-12-07T00:33:41;95596.50;;;3.07;77.95
70684;BME280;58263;48.146;11.440;2022-12-07T00:36:12;95601.63;;;3.08;78.10
70684;BME280;58263;48.146;11.440;2022-12-07T00:38:39;95595.50;;;3.08;77.80
70684;BME280;58263;48.146;11.440;2022-12-07T00:41:10;95593.59;;;3.01;78.08
70684;BME280;58263;48.146;11.440;2022-12-07T00:43:35;95593.59;;;3.01;78.18
70684;BME280;58263;48.146;11.440;2022-12-07T00:46:01;95595.59;;;2.99;78.43
70684;BME280;58263;48.146;11.440;2022-12-07T00:48:26;95600.91;;;2.99;78.26
70684;BME280;58263;48.146;11.440;2022-12-07T00:50:51;95594.41;;;3.02;78.20
70684;BME280;58263;48.146;11.440;2022-12-07T00:53:17;95599.53;;;3.03;77.89
70684;BME280;58263;48.146;11.440;2022-12-07T00:55:43;95594.22;;;3.03;77.97
70684;BME280;58263;48.146;11.440;2022-12-07T00:58:08;95596.69;;;3.05;78.09
70684;BME280;58263;48.146;11.440;2022-12-07T01:00:36;95591.78;;;3.02;78.31
70684;BME280;58263;48.146;11.440;2022-12-07T01:03:03;95594.22;;;3.03;77.94
70684;BME280;58263;48.146;11.440;2022-12-07T01:05:28;95595.41;;;3.01;78.13
70684;BME280;58263;48.146;11.440;2022-12-07T01:07:53;95591.78;;;3.02;78.54
70684;BME280;58263;48.146;11.440;2022-12-07T01:10:19;95598.91;;;3.01;78.19
70684;BME280;58263;48.146;11.440;2022-12-07T01:12:44;95589.31;;;3.00;78.04
70684;BME280;58263;48.146;11.440;2022-12-07T01:15:10;95589.31;;;3.00;78.33
70684;BME280;58263;48.146;11.440;2022-12-07T01:17:35;95597.25;;;3.00;78.33
70684;BME280;58263;48.146;11.440;2022-12-07T01:20:02;95594.41;;;3.02;78.44
70684;BME280;58263;48.146;11.440;2022-12-07T01:22:28;95599.53;;;3.03;78.41
70684;BME280;58263;48.146;11.440;2022-12-07T01:24:53;95594.59;;;3.00;78.48
70684;BME280;58263;48.146;11.440;2022-12-07T01:27:18;95596.59;;;2.98;78.43
70684;BME280;58263;48.146;11.440;2022-12-07T01:29:44;95596.41;;;3.00;78.43
70684;BME280;58263;48.146;11.440;2022-12-07T01:32:09;95607.03;;;3.00;78.66
70684;BME280;58263;48.146;11.440;2022-12-07T01:34:35;95596.59;;;2.98;79.09
70684;BME280;58263;48.146;11.440;2022-12-07T01:37:00;95610.50;;;3.00;78.69
70684;BME280;58263;48.146;11.440;2022-12-07T01:39:25;95598.63;;;2.96;78.95
70684;BME280;58263;48.146;11.440;2022-12-07T01:41:52;95603.09;;;2.96;78.75
70684;BME280;58263;48.146;11.440;2022-12-07T01:44:28;95594.59;;;3.00;78.63
70684;BME280;58263;48.146;11.440;2022-12-07T01:47:03;95595.59;;;2.99;78.63
70684;BME280;58263;48.146;11.440;2022-12-07T01:49:37;95592.50;;;2.96;79.13
70684;BME280;58263;48.146;11.440;2022-12-07T01:52:28;95589.69;;;2.97;78.81
70684;BME280;58263;48.146;11.440;2022-12-07T01:54:58;95588.66;;;2.98;78.77
70684;BME280;58263;48.146;11.440;2022-12-07T01:57:24;95582.38;;;2.99;78.82
70684;BME280;58263;48.146;11.440;2022-12-07T01:59:51;95581.97;;;3.02;78.60
70684;BME280;58263;48.146;11.440;2022-12-07T02:02:20;95585.00;;;2.99;78.76
70684;BME280;58263;48.146;11.440;2022-12-07T02:04:46;95585.00;;;2.99;78.86
70684;BME280;58263;48.146;11.440;2022-12-07T02:07:12;95593.97;;;2.98;79.13
70684;BME280;58263;48.146;11.440;2022-12-07T02:09:38;95580.16;;;3.03;78.74
70684;BME280;58263;48.146;11.440;2022-12-07T02:12:03;95586.00;;;2.98;79.18
70684;BME280;58263;48.146;11.440;2022-12-07T02:14:29;95583.94;;;2.94;79.09
70684;BME280;58263;48.146;11.440;2022-12-07T02:17:24;95585.13;;;2.91;79.50
70684;BME280;58263;48.146;11.440;2022-12-07T02:20:23;95574.53;;;2.91;79.25
70684;BME280;58263;48.146;11.440;2022-12-07T02:31:19;95566.59;;;2.91;79.41
70684;BME280;58263;48.146;11.440;2022-12-07T02:33:51;95569.63;;;2.88;79.62
70684;BME280;58263;48.146;11.440;2022-12-07T02:36:29;95574.16;;;2.94;79.38
70684;BME280;58263;48.146;11.440;2022-12-07T02:39:01;95575.63;;;2.82;79.87
70684;BME280;58263;48.146;11.440;2022-12-07T02:41:36;95569.97;;;2.85;79.51
70684;BME280;58263;48.146;11.440;2022-12-07T02:44:24;95571.25;;;2.89;79.60
70684;BME280;58263;48.146;11.440;2022-12-07T02:46:54;95562.66;;;2.87;79.18
70684;BME280;58263;48.146;11.440;2022-12-07T02:49:22;95564.75;;;2.92;79.11
70684;BME280;58263;48.146;11.440;2022-12-07T02:51:48;95566.59;;;2.91;79.16
70684;BME280;58263;48.146;11.440;2022-12-07T02:54:17;95565.97;;;2.89;79.42
70684;BME280;58263;48.146;11.440;2022-12-07T02:56:46;95559.00;;;2.88;79.24
70684;BME280;58263;48.146;11.440;2022-12-07T03:08:04;95568.41;;;2.91;79.47
70684;BME280;58263;48.146;11.440;2022-12-07T03:10:50;95570.03;;;2.92;79.53
70684;BME280;58263;48.146;11.440;2022-12-07T03:16:07;95560.66;;;2.89;79.53
70684;BME280;58263;48.146;11.440;2022-12-07T03:18:36;95566.38;;;2.93;79.23
70684;BME280;58263;48.146;11.440;2022-12-07T03:21:08;95567.84;;;2.95;79.14
70684;BME280;58263;48.146;11.440;2022-12-07T03:23:35;95570.31;;;2.97;78.86
70684;BME280;58263;48.146;11.440;2022-12-07T03:26:04;95562.56;;;2.95;79.04
70684;BME280;58263;48.146;11.440;2022-12-07T03:28:36;95562.84;;;2.85;79.48
70684;BME280;58263;48.146;11.440;2022-12-07T03:31:23;95564.38;;;2.95;79.06
70684;BME280;58263;48.146;11.440;2022-12-07T03:34:19;95561.47;;;2.90;79.24
70684;BME280;58263;48.146;11.440;2022-12-07T03:36:55;95562.66;;;2.87;79.42
70684;BME280;58263;48.146;11.440;2022-12-07T03:39:23;95566.59;;;2.91;79.08
70684;BME280;58263;48.146;11.440;2022-12-07T03:41:54;95558.75;;;2.83;79.44
70684;BME280;58263;48.146;11.440;2022-12-07T03:44:20;95560.91;;;2.94;78.91
70684;BME280;58263;48.146;11.440;2022-12-07T03:46:57;95556.63;;;2.93;79.07
70684;BME280;58263;48.146;11.440;2022-12-07T03:52:31;95556.38;;;2.88;79.29
70684;BME280;58263;48.146;11.440;2022-12-07T03:55:10;95556.84;;;2.77;79.78
70684;BME280;58263;48.146;11.440;2022-12-07T03:57:37;95550.81;;;2.83;79.75
70684;BME280;58263;48.146;11.440;2022-12-07T04:00:06;95555.84;;;2.78;79.99
70684;BME280;58263;48.146;11.440;2022-12-07T04:02:32;95550.53;;;2.78;80.09
70684;BME280;58263;48.146;11.440;2022-12-07T04:04:59;95549.84;;;2.69;80.66
70684;BME280;58263;48.146;11.440;2022-12-07T04:07:27;95547.63;;;2.73;80.87
70684;BME280;58263;48.146;11.440;2022-12-07T04:09:52;95548.66;;;2.72;80.73
70684;BME280;58263;48.146;11.440;2022-12-07T04:12:20;95551.03;;;2.66;81.00
70684;BME280;58263;48.146;11.440;2022-12-07T04:14:45;95553.03;;;2.64;81.16
70684;BME280;58263;48.146;11.440;2022-12-07T04:17:11;95547.47;;;2.74;80.57
70684;BME280;58263;48.146;11.440;2022-12-07T04:19:36;95551.53;;;2.77;80.54
70684;BME280;58263;48.146;11.440;2022-12-07T04:22:03;95551.66;;;2.68;81.12
70684;BME280;58263;48.146;11.440;2022-12-07T04:24:29;95563.78;;;2.78;80.92
70684;BME280;58263;48.146;11.440;2022-12-07T04:26:55;95561.72;;;2.58;81.46
70684;BME280;58263;48.146;11.440;2022-12-07T04:29:21;95556.69;;;2.63;81.38
70684;BME280;58263;48.146;11.440;2022-12-07T04:31:47;95561.63;;;2.66;81.47
70684;BME280;58263;48.146;11.440;2022-12-07T04:34:15;95562.50;;;2.74;81.68
70684;BME280;58263;48.146;11.440;2022-12-07T04:36:42;95555.84;;;2.78;81.38
70684;BME280;58263;48.146;11.440;2022-12-07T04:39:18;95554.56;;;2.74;81.55
70684;BME280;58263;48.146;11.440;2022-12-07T04:41:44;95554.66;;;2.65;81.78
70684;BME280;58263;48.146;11.440;2022-12-07T04:44:09;95551.84;;;2.67;81.62
70684;BME280;58263;48.146;11.440;2022-12-07T04:46:36;95548.19;;;2.68;81.59
70684;BME280;58263;48.146;11.440;2022-12-07T04:49:01;95556.78;;;2.70;81.50
70684;BME280;58263;48.146;11.440;2022-12-07T04:51:28;95554.28;;;2.68;81.43
70684;BME280;58263;48.146;11.440;2022-12-07T04:53:55;95560.34;;;2.62;81.81
70684;BME280;58263;48.146;11.440;2022-12-07T04:56:20;95559.59;;;2.68;81.61
70684;BME280;58263;48.146;11.440;2022-12-07T04:58:47;95555.06;;;2.62;81.91
70684;BME280;58263;48.146;11.440;2022-12-07T05:01:13;95553.69;;;2.51;82.53
70684;BME280;58263;48.146;11.440;2022-12-07T05:03:38;95553.78;;;2.58;82.13
70684;BME280;58263;48.146;11.440;2022-12-07T05:06:05;95559.16;;;2.65;81.52
70684;BME280;58263;48.146;11.440;2022-12-07T05:08:32;95553.88;;;2.65;81.47
70684;BME280;58263;48.146;11.440;2022-12-07T05:10:57;95556.31;;;2.66;81.28
70684;BME280;58263;48.146;11.440;2022-12-07T05:13:23;95559.00;;;2.51;81.94
70684;BME280;58263;48.146;11.440;2022-12-07T05:15:48;95563.38;;;2.59;81.56
70684;BME280;58263;48.146;11.440;2022-12-07T05:18:14;95562.34;;;2.60;81.44
70684;BME280;58263;48.146;11.440;2022-12-07T05:20:40;95557.06;;;2.60;82.12
70684;BME280;58263;48.146;11.440;2022-12-07T05:23:05;95558.50;;;2.63;81.90
70684;BME280;58263;48.146;11.440;2022-12-07T05:25:30;95558.81;;;2.53;81.50
70684;BME280;58263;48.146;11.440;2022-12-07T05:27:56;95563.91;;;2.54;81.78
70684;BME280;58263;48.146;11.440;2022-12-07T05:30:22;95554.41;;;2.60;81.51
70684;BME280;58263;48.146;11.440;2022-12-07T05:32:48;95559.78;;;2.52;81.90
70684;BME280;58263;48.146;11.440;2022-12-07T05:35:13;95557.16;;;2.52;81.85
70684;BME280;58263;48.146;11.440;2022-12-07T05:37:38;95554.97;;;2.56;82.10
70684;BME280;58263;48.146;11.440;2022-12-07T05:40:05;95561.47;;;2.38;82.13
70684;BME280;58263;48.146;11.440;2022-12-07T05:42:31;95558.19;;;2.51;82.18
70684;BME280;58263;48.146;11.440;2022-12-07T05:44:56;95556.53;;;2.50;82.00
70684;BME280;58263;48.146;11.440;2022-12-07T05:47:22;95558.19;;;2.51;81.87
70684;BME280;58263;48.146;11.440;2022-12-07T05:49:47;95560.94;;;2.43;82.18
70684;BME280;58263;48.146;11.440;2022-12-07T05:52:22;95550.88;;;2.38;82.57
70684;BME280;58263;48.146;11.440;2022-12-07T05:54:47;95551.78;;;2.45;82.21
70684;BME280;58263;48.146;11.440;2022-12-07T05:57:13;95555.53;;;2.51;81.69
70684;BME280;58263;48.146;11.440;2022-12-07T05:59:38;95554.88;;;2.49;81.78
70684;BME280;58263;48.146;11.440;2022-12-07T06:02:06;95561.94;;;2.42;82.33
70684;BME280;58263;48.146;11.440;2022-12-07T06:04:35;95561.28;;;2.40;81.97
70684;BME280;58263;48.146;11.440;2022-12-07T06:07:00;95556.53;;;2.35;82.10
70684;BME280;58263;48.146;11.440;2022-12-07T06:09:27;95564.19;;;2.45;82.24
70684;BME280;58263;48.146;11.440;2022-12-07T06:11:53;95561.66;;;2.36;82.67
70684;BME280;58263;48.146;11.440;2022-12-07T06:14:38;95567.03;;;2.43;81.73
70684;BME280;58263;48.146;11.440;2022-12-07T06:17:04;95568.13;;;2.34;82.34
70684;BME280;58263;48.146;11.440;2022-12-07T06:19:29;95574.50;;;2.40;81.96
70684;BME280;58263;48.146;11.440;2022-12-07T06:21:56;95569.88;;;2.42;81.75
70684;BME280;58263;48.146;11.440;2022-12-07T06:24:22;95570.50;;;2.44;81.75
70684;BME280;58263;48.146;11.440;2022-12-07T06:26:47;95581.72;;;2.46;81.65
70684;BME280;58263;48.146;11.440;2022-12-07T06:29:13;95579.91;;;2.31;82.25
70684;BME280;58263;48.146;11.440;2022-12-07T06:31:39;95575.16;;;2.42;81.86
70684;BME280;58263;48.146;11.440;2022-12-07T06:34:06;95581.91;;;2.29;82.32
70684;BME280;58263;48.146;11.440;2022-12-07T06:36:33;95579.19;;;2.38;82.23
70684;BME280;58263;48.146;11.440;2022-12-07T06:38:59;95579.91;;;2.31;82.06
70684;BME280;58263;48.146;11.440;2022-12-07T06:41:24;95580.81;;;2.39;82.09
70684;BME280;58263;48.146;11.440;2022-12-07T06:43:50;95580.66;;;2.25;82.04
70684;BME280;58263;48.146;11.440;2022-12-07T06:46:16;95577.91;;;2.33;81.98
70684;BME280;58263;48.146;11.440;2022-12-07T06:48:42;95580.09;;;2.30;82.15
70684;BME280;58263;48.146;11.440;2022-12-07T06:51:07;95585.47;;;2.36;81.94
70684;BME280;58263;48.146;11.440;2022-12-07T06:53:33;95581.44;;;2.26;81.17
70684;BME280;58263;48.146;11.440;2022-12-07T06:55:58;95583.09;;;2.27;81.39
70684;BME280;58263;48.146;11.440;2022-12-07T06:58:24;95589.47;;;2.17;81.71
70684;BME280;58263;48.146;11.440;2022-12-07T07:00:49;95583.81;;;2.20;81.56
70684;BME280;58263;48.146;11.440;2022-12-07T07:03:15;95591.13;;;2.33;81.55
70684;BME280;58263;48.146;11.440;2022-12-07T07:05:42;95590.28;;;2.18;81.68
70684;BME280;58263;48.146;11.440;2022-12-07T07:08:07;95592.59;;;2.21;81.87
70684;BME280;58263;48.146;11.440;2022-12-07T07:10:33;95586.28;;;2.22;81.77
70684;BME280;58263;48.146;11.440;2022-12-07T07:12:58;95589.19;;;1.97;81.99
70684;BME280;58263;48.146;11.440;2022-12-07T07:15:24;95592.22;;;2.09;81.60
70684;BME280;58263;48.146;11.440;2022-12-07T07:17:49;95594.75;;;2.02;82.38
70684;BME280;58263;48.146;11.440;2022-12-07T07:20:15;95590.66;;;2.15;82.16
70684;BME280;58263;48.146;11.440;2022-12-07T07:22:40;95596.53;;;2.25;81.45
70684;BME280;58263;48.146;11.440;2022-12-07T07:25:06;95592.50;;;2.29;81.11
70684;BME280;58263;48.146;11.440;2022-12-07T07:27:31;95592.22;;;2.39;81.07
70684;BME280;58263;48.146;11.440;2022-12-07T07:29:57;95593.78;;;2.33;81.08
70684;BME280;58263;48.146;11.440;2022-12-07T07:32:22;95590.94;;;2.20;81.14
70684;BME280;58263;48.146;11.440;2022-12-07T07:34:47;95592.69;;;2.28;81.07
70684;BME280;58263;48.146;11.440;2022-12-07T07:37:13;95600.25;;;2.16;81.28
70684;BME280;58263;48.146;11.440;2022-12-07T07:39:39;95595.78;;;2.31;81.04
70684;BME280;58263;48.146;11.440;2022-12-07T07:42:04;95603.09;;;2.29;80.39
70684;BME280;58263;48.146;11.440;2022-12-07T07:44:29;95602.16;;;2.22;80.61
70684;BME280;58263;48.146;11.440;2022-12-07T07:46:55;95604.19;;;2.20;80.85
70684;BME280;58263;48.146;11.440;2022-12-07T07:49:20;95599.78;;;2.27;81.16
70684;BME280;58263;48.146;11.440;2022-12-07T07:51:45;95605.81;;;2.21;81.55
70684;BME280;58263;48.146;11.440;2022-12-07T07:54:11;95610.38;;;2.27;81.05
70684;BME280;58263;48.146;11.440;2022-12-07T07:56:36;95608.78;;;2.03;81.40
70684;BME280;58263;48.146;11.440;2022-12-07T07:59:01;95612.03;;;2.28;81.34
70684;BME280;58263;48.146;11.440;2022-12-07T08:01:27;95600.63;;;2.28;80.85
70684;BME280;58263;48.146;11.440;2022-12-07T08:03:52;95606.25;;;2.25;80.78
70684;BME280;58263;48.146;11.440;2022-12-07T08:06:17;95605.09;;;2.27;80.79
70684;BME280;58263;48.146;11.440;2022-12-07T08:08:43;95604.38;;;2.33;80.83
70684;BME280;58263;48.146;11.440;2022-12-07T08:11:09;95601.44;;;2.28;80.95
70684;BME280;58263;48.146;11.440;2022-12-07T08:13:36;95597.25;;;2.49;80.93
70684;BME280;58263;48.146;11.440;2022-12-07T08:16:07;95598.00;;;2.43;81.16
70684;BME280;58263;48.146;11.440;2022-12-07T08:18:38;95607.81;;;2.49;80.78
70684;BME280;58263;48.146;11.440;2022-12-07T08:21:04;95603.28;;;2.43;80.43
70684;BME280;58263;48.146;11.440;2022-12-07T08:23:30;95610.47;;;2.49;80.71
70684;BME280;58263;48.146;11.440;2022-12-07T08:26:00;95617.03;;;2.38;80.67
70684;BME280;58263;48.146;11.440;2022-12-07T08:28:25;95613.13;;;2.34;81.15
70684;BME280;58263;48.146;11.440;2022-12-07T08:30:50;95614.59;;;2.36;80.47
70684;BME280;58263;48.146;11.440;2022-12-07T08:33:16;95612.66;;;2.45;80.28
70684;BME280;58263;48.146;11.440;2022-12-07T08:35:41;95615.06;;;2.55;79.90
70684;BME280;58263;48.146;11.440;2022-12-07T08:38:06;95612.75;;;2.52;80.08
70684;BME280;58263;48.146;11.440;2022-12-07T08:40:32;95613.03;;;2.57;80.14
70684;BME280;58263;48.146;11.440;2022-12-07T08:42:57;95602.53;;;2.49;79.87
70684;BME280;58263;48.146;11.440;2022-12-07T08:45:22;95601.53;;;2.65;80.14
70684;BME280;58263;48.146;11.440;2022-12-07T08:47:59;95604.34;;;2.63;79.17
70684;BME280;58263;48.146;11.440;2022-12-07T08:50:27;95610.56;;;2.70;79.15
70684;BME280;58263;48.146;11.440;2022-12-07T08:52:55;95600.66;;;2.79;78.67
70684;BME280;58263;48.146;11.440;2022-12-07T08:55:22;95606.03;;;2.86;78.15
70684;BME280;58263;48.146;11.440;2022-12-07T08:57:48;95603.31;;;2.79;77.56
70684;BME280;58263;48.146;11.440;2022-12-07T09:00:14;95606.69;;;2.88;78.10
70684;BME280;58263;48.146;11.440;2022-12-07T09:02:39;95601.91;;;2.98;78.32
70684;BME280;58263;48.146;11.440;2022-12-07T09:05:05;95607.97;;;2.92;77.34
70684;BME280;58263;48.146;11.440;2022-12-07T09:07:32;95605.59;;;2.97;77.47
70684;BME280;58263;48.146;11.440;2022-12-07T09:09:58;95607.13;;;2.92;77.60
70684;BME280;58263;48.146;11.440;2022-12-07T09:12:23;95603.84;;;2.90;77.49
70684;BME280;58263;48.146;11.440;2022-12-07T09:14:48;95603.25;;;3.09;76.72
70684;BME280;58263;48.146;11.440;2022-12-07T09:17:14;95594.38;;;3.17;76.55
70684;BME280;58263;48.146;11.440;2022-12-07T09:19:39;95590.41;;;3.28;76.20
70684;BME280;58263;48.146;11.440;2022-12-07T09:22:06;95601.16;;;3.41;75.99
70684;BME280;58263;48.146;11.440;2022-12-07T09:24:32;95601.56;;;3.45;75.75
70684;BME280;58263;48.146;11.440;2022-12-07T09:26:58;95602.03;;;3.27;76.07
70684;BME280;58263;48.146;11.440;2022-12-07T09:29:23;95600.84;;;3.51;76.18
70684;BME280;58263;48.146;11.440;2022-12-07T09:31:49;95600.19;;;3.49;76.14
70684;BME280;58263;48.146;11.440;2022-12-07T09:34:14;95600.44;;;3.54;75.78
70684;BME280;58263;48.146;11.440;2022-12-07T09:36:39;95600.19;;;3.70;75.14
70684;BME280;58263;48.146;11.440;2022-12-07T09:39:05;95602.22;;;3.47;76.03
70684;BME280;58263;48.146;11.440;2022-12-07T09:41:31;95599.31;;;3.63;75.92
70684;BME280;58263;48.146;11.440;2022-12-07T09:44:09;95602.22;;;3.68;74.81
70684;BME280;58263;48.146;11.440;2022-12-07T09:46:39;95599.44;;;3.77;74.84
70684;BME280;58263;48.146;11.440;2022-12-07T09:49:11;95594.00;;;3.85;74.79
70684;BME280;58263;48.146;11.440;2022-12-07T09:51:37;95591.72;;;3.82;74.74
70684;BME280;58263;48.146;11.440;2022-12-07T09:54:03;95585.75;;;4.01;74.54
70684;BME280;58263;48.146;11.440;2022-12-07T09:56:29;95586.50;;;3.95;73.81
70684;BME280;58263;48.146;11.440;2022-12-07T09:59:00;95593.19;;;3.91;74.31
70684;BME280;58263;48.146;11.440;2022-12-07T10:01:33;95585.50;;;3.96;74.33
70684;BME280;58263;48.146;11.440;2022-12-07T10:04:08;95585.03;;;4.21;72.94
70684;BME280;58263;48.146;11.440;2022-12-07T10:06:34;95579.81;;;4.34;73.19
70684;BME280;58263;48.146;11.440;2022-12-07T10:09:00;95570.41;;;4.32;72.15
70684;BME280;58263;48.146;11.440;2022-12-07T10:11:25;95570.44;;;4.38;72.05
70684;BME280;58263;48.146;11.440;2022-12-07T10:13:52;95574.81;;;4.53;71.33
70684;BME280;58263;48.146;11.440;2022-12-07T10:18:48;95574.31;;;4.78;69.45
70684;BME280;58263;48.146;11.440;2022-12-07T10:21:16;95573.56;;;4.97;68.73
70684;BME280;58263;48.146;11.440;2022-12-07T10:23:59;95578.47;;;5.00;67.25
70684;BME280;58263;48.146;11.440;2022-12-07T10:26:57;95567.38;;;4.77;66.59
70684;BME280;58263;48.146;11.440;2022-12-07T10:29:31;95569.66;;;4.93;67.07
70684;BME280;58263;48.146;11.440;2022-12-07T10:32:02;95568.41;;;4.82;67.11
70684;BME280;58263;48.146;11.440;2022-12-07T10:34:31;95558.28;;;5.19;66.52
70684;BME280;58263;48.146;11.440;2022-12-07T10:39:56;95572.91;;;5.70;63.54
70684;BME280;58263;48.146;11.440;2022-12-07T10:42:29;95570.84;;;5.92;62.76
70684;BME280;58263;48.146;11.440;2022-12-07T10:45:15;95562.47;;;5.62;62.69
70684;BME280;58263;48.146;11.440;2022-12-07T10:48:10;95556.53;;;6.20;61.90
70684;BME280;58263;48.146;11.440;2022-12-07T10:50:52;95547.59;;;6.67;61.36
70684;BME280;58263;48.146;11.440;2022-12-07T10:53:30;95553.53;;;6.62;60.99
70684;BME280;58263;48.146;11.440;2022-12-07T10:56:16;95542.91;;;7.39;59.09
70684;BME280;58263;48.146;11.440;2022-12-07T11:01:32;95540.94;;;7.28;57.54
70684;BME280;58263;48.146;11.440;2022-12-07T11:04:18;95537.28;;;7.79;56.13
70684;BME280;58263;48.146;11.440;2022-12-07T11:07:07;95531.09;;;7.28;56.66
70684;BME280;58263;48.146;11.440;2022-12-07T11:09:47;95524.28;;;8.08;55.26
70684;BME280;58263;48.146;11.440;2022-12-07T11:15:18;95525.34;;;9.73;50.47
70684;BME280;58263;48.146;11.440;2022-12-07T11:20:43;95520.91;;;9.67;49.47
70684;BME280;58263;48.146;11.440;2022-12-07T11:26:08;95509.19;;;10.62;45.43
70684;BME280;58263;48.146;11.440;2022-12-07T11:34:07;95499.06;;;10.05;45.69
70684;BME280;58263;48.146;11.440;2022-12-07T11:36:48;95500.91;;;10.17;47.03
70684;BME280;58263;48.146;11.440;2022-12-07T11:39:26;95514.31;;;9.81;46.75
70684;BME280;58263;48.146;11.440;2022-12-07T11:47:40;95499.19;;;8.72;48.37
70684;BME280;58263;48.146;11.440;2022-12-07T11:50:42;95503.00;;;8.45;48.76
70684;BME280;58263;48.146;11.440;2022-12-07T12:03:42;95483.94;;;8.17;51.12
70684;BME280;58263;48.146;11.440;2022-12-07T12:06:08;95482.84;;;7.81;50.39
70684;BME280;58263;48.146;11.440;2022-12-07T12:09:02;95474.88;;;8.18;50.46
70684;BME280;58263;48.146;11.440;2022-12-07T12:16:54;95470.16;;;8.57;48.73
70684;BME280;58263;48.146;11.440;2022-12-07T12:22:23;95463.59;;;7.97;49.45
70684;BME280;58263;48.146;11.440;2022-12-07T12:24:53;95465.97;;;8.05;49.83
70684;BME280;58263;48.146;11.440;2022-12-07T12:27:34;95460.53;;;7.75;50.03
70684;BME280;58263;48.146;11.440;2022-12-07T12:30:03;95458.00;;;7.80;50.62
70684;BME280;58263;48.146;11.440;2022-12-07T12:32:38;95457.66;;;7.95;50.18
70684;BME280;58263;48.146;11.440;2022-12-07T12:37:52;95459.56;;;8.80;47.77
70684;BME280;58263;48.146;11.440;2022-12-07T12:42:53;95462.56;;;9.03;46.73
70684;BME280;58263;48.146;11.440;2022-12-07T12:50:21;95459.09;;;8.35;48.66
70684;BME280;58263;48.146;11.440;2022-12-07T12:55:18;95453.44;;;8.24;49.72
70684;BME280;58263;48.146;11.440;2022-12-07T13:00:30;95446.22;;;7.88;50.43
70684;BME280;58263;48.146;11.440;2022-12-07T13:02:58;95451.56;;;8.06;50.58
70684;BME280;58263;48.146;11.440;2022-12-07T13:05:31;95440.09;;;7.62;51.17
70684;BME280;58263;48.146;11.440;2022-12-07T13:08:01;95444.38;;;7.63;51.55
70684;BME280;58263;48.146;11.440;2022-12-07T13:18:04;95443.19;;;6.76;56.45
70684;BME280;58263;48.146;11.440;2022-12-07T13:20:57;95438.63;;;6.84;54.58
70684;BME280;58263;48.146;11.440;2022-12-07T13:26:20;95445.28;;;6.68;56.18
70684;BME280;58263;48.146;11.440;2022-12-07T13:28:47;95433.72;;;6.81;55.48
70684;BME280;58263;48.146;11.440;2022-12-07T13:31:20;95440.28;;;6.85;55.68
70684;BME280;58263;48.146;11.440;2022-12-07T13:33:48;95438.34;;;6.60;55.79
70684;BME280;58263;48.146;11.440;2022-12-07T13:36:24;95438.72;;;6.64;55.64
70684;BME280;58263;48.146;11.440;2022-12-07T13:39:00;95447.06;;;6.35;54.56
70684;BME280;58263;48.146;11.440;2022-12-07T13:41:35;95432.78;;;6.68;53.89
70684;BME280;58263;48.146;11.440;2022-12-07T13:44:05;95433.25;;;7.48;52.09
70684;BME280;58263;48.146;11.440;2022-12-07T13:46:46;95427.81;;;8.35;48.88
70684;BME280;58263;48.146;11.440;2022-12-07T13:49:17;95431.47;;;9.44;46.46
70684;BME280;58263;48.146;11.440;2022-12-07T13:51:43;95423.94;;;9.76;45.67
70684;BME280;58263;48.146;11.440;2022-12-07T13:54:10;95415.66;;;9.90;44.24
70684;BME280;58263;48.146;11.440;2022-12-07T13:56:37;95416.44;;;10.38;44.16
70684;BME280;58263;48.146;11.440;2022-12-07T13:59:05;95421.19;;;10.24;42.92
70684;BME280;58263;48.146;11.440;2022-12-07T14:01:35;95415.25;;;10.22;42.70
70684;BME280;58263;48.146;11.440;2022-12-07T14:04:29;95407.28;;;10.79;42.04
70684;BME280;58263;48.146;11.440;2022-12-07T14:06:55;95419.28;;;9.60;43.17
70684;BME280;58263;48.146;11.440;2022-12-07T14:09:25;95411.22;;;8.82;44.93
70684;BME280;58263;48.146;11.440;2022-12-07T14:11:56;95412.31;;;8.25;45.99
70684;BME280;58263;48.146;11.440;2022-12-07T14:14:31;95415.06;;;8.00;46.61
70684;BME280;58263;48.146;11.440;2022-12-07T14:17:15;95415.06;;;7.82;47.65
70684;BME280;58263;48.146;11.440;2022-12-07T14:19:47;95423.97;;;8.12;47.39
70684;BME280;58263;48.146;11.440;2022-12-07T14:22:26;95409.28;;;8.59;46.63
70684;BME280;58263;48.146;11.440;2022-12-07T14:25:19;95407.81;;;8.07;47.39
70684;BME280;58263;48.146;11.440;2022-12-07T14:28:03;95414.41;;;7.42;48.88
70684;BME280;58263;48.146;11.440;2022-12-07T14:30:30;95409.00;;;7.24;50.15
70684;BME280;58263;48.146;11.440;2022-12-07T14:33:01;95421.47;;;6.73;51.99
70684;BME280;58263;48.146;11.440;2022-12-07T14:35:29;95414.72;;;6.70;52.21
70684;BME280;58263;48.146;11.440;2022-12-07T14:37:54;95407.22;;;6.54;53.01
70684;BME280;58263;48.146;11.440;2022-12-07T14:40:25;95416.28;;;6.46;53.42
70684;BME280;58263;48.146;11.440;2022-12-07T14:42:56;95415.78;;;6.17;54.32
70684;BME280;58263;48.146;11.440;2022-12-07T14:45:22;95411.94;;;6.00;55.06
70684;BME280;58263;48.146;11.440;2022-12-07T14:47:48;95417.88;;;6.08;54.88
70684;BME280;58263;48.146;11.440;2022-12-07T14:50:16;95410.31;;;5.92;55.49